Terminal Aerodrome Forecast
Issued by NWS

Home | Current Version | Previous Version | Text Only | Print | Product List | Glossary On
Versions: 1 2 3 4 5 6 7 8 9 10 11 12 13
000
FTUS43 KIND 220521
TAFBMG
TAF
KBMG 220521Z 2206/2306 16007KT P6SM SCT250 WS020/19035KT
     FM221400 16010KT P6SM BKN090 WS020/19035KT
     FM221600 17012G21KT P6SM BKN140
     FM221800 17012G20KT P6SM VCSH BKN120
     FM230000 17007KT 5SM SHRA OVC030
      AMD LTD TO CLD VIS AND WIND TIL 221300=

USA.gov is the U.S. government's official web portal to all federal, state and local government web resources and services.